sensor_id;sensor_type;location;lat;lon;timestamp;P1;durP1;ratioP1;P2;durP2;ratioP2
80788;SDS011;70191;51.114;8.678;2023-06-22T00:00:50;15.18;;;14.10;;
80788;SDS011;70191;51.114;8.678;2023-06-22T00:03:17;14.23;;;13.15;;
80788;SDS011;70191;51.114;8.678;2023-06-22T00:05:44;15.43;;;14.23;;
80788;SDS011;70191;51.114;8.678;2023-06-22T00:08:10;14.68;;;13.57;;
80788;SDS011;70191;51.114;8.678;2023-06-22T00:10:36;14.88;;;13.70;;
80788;SDS011;70191;51.114;8.678;2023-06-22T00:13:02;15.10;;;13.80;;
80788;SDS011;70191;51.114;8.678;2023-06-22T00:15:28;14.85;;;13.40;;
80788;SDS011;70191;51.114;8.678;2023-06-22T00:17:54;14.85;;;13.68;;
80788;SDS011;70191;51.114;8.678;2023-06-22T00:20:22;15.20;;;14.07;;
80788;SDS011;70191;51.114;8.678;2023-06-22T00:22:52;14.40;;;13.40;;
80788;SDS011;70191;51.114;8.678;2023-06-22T00:25:18;14.25;;;13.18;;
80788;SDS011;70191;51.114;8.678;2023-06-22T00:27:44;14.45;;;13.35;;
80788;SDS011;70191;51.114;8.678;2023-06-22T00:30:10;14.05;;;13.00;;
80788;SDS011;70191;51.114;8.678;2023-06-22T00:32:36;14.88;;;13.68;;
80788;SDS011;70191;51.114;8.678;2023-06-22T00:35:02;14.98;;;13.88;;
80788;SDS011;70191;51.114;8.678;2023-06-22T00:37:28;14.60;;;13.50;;
80788;SDS011;70191;51.114;8.678;2023-06-22T00:39:55;14.35;;;13.25;;
80788;SDS011;70191;51.114;8.678;2023-06-22T00:42:21;14.73;;;13.63;;
80788;SDS011;70191;51.114;8.678;2023-06-22T00:44:47;14.98;;;13.75;;
80788;SDS011;70191;51.114;8.678;2023-06-22T00:47:14;15.90;;;14.63;;
80788;SDS011;70191;51.114;8.678;2023-06-22T00:49:41;16.08;;;14.98;;
80788;SDS011;70191;51.114;8.678;2023-06-22T00:52:07;15.75;;;14.68;;
80788;SDS011;70191;51.114;8.678;2023-06-22T00:54:38;14.45;;;13.40;;
80788;SDS011;70191;51.114;8.678;2023-06-22T00:57:04;15.35;;;14.30;;
80788;SDS011;70191;51.114;8.678;2023-06-22T00:59:30;16.00;;;14.90;;
80788;SDS011;70191;51.114;8.678;2023-06-22T01:01:58;14.93;;;13.82;;
80788;SDS011;70191;51.114;8.678;2023-06-22T01:04:33;14.77;;;13.77;;
80788;SDS011;70191;51.114;8.678;2023-06-22T01:07:02;15.60;;;14.40;;
80788;SDS011;70191;51.114;8.678;2023-06-22T01:09:31;16.02;;;14.93;;
80788;SDS011;70191;51.114;8.678;2023-06-22T01:12:00;15.18;;;14.07;;
80788;SDS011;70191;51.114;8.678;2023-06-22T01:14:28;14.30;;;13.27;;
80788;SDS011;70191;51.114;8.678;2023-06-22T01:16:56;15.70;;;14.40;;
80788;SDS011;70191;51.114;8.678;2023-06-22T01:21:48;15.88;;;14.75;;
80788;SDS011;70191;51.114;8.678;2023-06-22T01:24:22;15.15;;;14.13;;
80788;SDS011;70191;51.114;8.678;2023-06-22T01:29:33;15.07;;;13.90;;
80788;SDS011;70191;51.114;8.678;2023-06-22T01:32:01;15.48;;;14.45;;
80788;SDS011;70191;51.114;8.678;2023-06-22T01:34:28;14.95;;;13.95;;
80788;SDS011;70191;51.114;8.678;2023-06-22T01:36:54;16.25;;;14.95;;
80788;SDS011;70191;51.114;8.678;2023-06-22T01:39:21;14.73;;;13.52;;
80788;SDS011;70191;51.114;8.678;2023-06-22T01:41:47;14.70;;;13.60;;
80788;SDS011;70191;51.114;8.678;2023-06-22T01:44:13;14.45;;;13.35;;
80788;SDS011;70191;51.114;8.678;2023-06-22T01:46:40;13.73;;;12.82;;
80788;SDS011;70191;51.114;8.678;2023-06-22T01:49:06;14.82;;;13.77;;
80788;SDS011;70191;51.114;8.678;2023-06-22T01:51:32;15.02;;;13.93;;
80788;SDS011;70191;51.114;8.678;2023-06-22T01:53:58;15.77;;;14.48;;
80788;SDS011;70191;51.114;8.678;2023-06-22T01:56:24;14.85;;;13.55;;
80788;SDS011;70191;51.114;8.678;2023-06-22T01:59:01;15.38;;;14.18;;
80788;SDS011;70191;51.114;8.678;2023-06-22T02:01:31;15.38;;;14.25;;
80788;SDS011;70191;51.114;8.678;2023-06-22T02:04:02;14.55;;;13.55;;
80788;SDS011;70191;51.114;8.678;2023-06-22T02:06:33;14.57;;;13.48;;
80788;SDS011;70191;51.114;8.678;2023-06-22T02:09:02;14.80;;;13.80;;
80788;SDS011;70191;51.114;8.678;2023-06-22T02:11:30;16.05;;;14.77;;
80788;SDS011;70191;51.114;8.678;2023-06-22T02:13:57;15.00;;;13.90;;
80788;SDS011;70191;51.114;8.678;2023-06-22T02:16:23;14.88;;;13.73;;
80788;SDS011;70191;51.114;8.678;2023-06-22T02:18:49;15.30;;;14.30;;
80788;SDS011;70191;51.114;8.678;2023-06-22T02:21:15;14.73;;;13.63;;
80788;SDS011;70191;51.114;8.678;2023-06-22T02:23:41;15.60;;;14.40;;
80788;SDS011;70191;51.114;8.678;2023-06-22T02:26:07;14.57;;;13.55;;
80788;SDS011;70191;51.114;8.678;2023-06-22T02:28:34;14.27;;;13.27;;
80788;SDS011;70191;51.114;8.678;2023-06-22T02:31:00;13.80;;;12.90;;
80788;SDS011;70191;51.114;8.678;2023-06-22T02:33:25;15.10;;;13.90;;
80788;SDS011;70191;51.114;8.678;2023-06-22T02:35:52;13.90;;;13.00;;
80788;SDS011;70191;51.114;8.678;2023-06-22T02:38:18;13.98;;;13.00;;
80788;SDS011;70191;51.114;8.678;2023-06-22T02:40:45;14.73;;;13.82;;
80788;SDS011;70191;51.114;8.678;2023-06-22T02:43:11;15.27;;;14.27;;
80788;SDS011;70191;51.114;8.678;2023-06-22T02:45:37;14.75;;;13.65;;
80788;SDS011;70191;51.114;8.678;2023-06-22T02:48:03;15.65;;;14.52;;
80788;SDS011;70191;51.114;8.678;2023-06-22T02:50:29;16.02;;;14.93;;
80788;SDS011;70191;51.114;8.678;2023-06-22T02:52:55;14.70;;;13.70;;
80788;SDS011;70191;51.114;8.678;2023-06-22T02:55:21;14.45;;;13.52;;
80788;SDS011;70191;51.114;8.678;2023-06-22T02:57:48;13.43;;;12.43;;
80788;SDS011;70191;51.114;8.678;2023-06-22T03:00:17;15.10;;;13.93;;
80788;SDS011;70191;51.114;8.678;2023-06-22T03:02:44;13.90;;;12.93;;
80788;SDS011;70191;51.114;8.678;2023-06-22T03:05:10;14.30;;;13.40;;
80788;SDS011;70191;51.114;8.678;2023-06-22T03:07:39;13.98;;;13.10;;
80788;SDS011;70191;51.114;8.678;2023-06-22T03:10:05;14.57;;;13.48;;
80788;SDS011;70191;51.114;8.678;2023-06-22T03:12:31;14.85;;;13.95;;
80788;SDS011;70191;51.114;8.678;2023-06-22T03:14:57;13.50;;;12.50;;
80788;SDS011;70191;51.114;8.678;2023-06-22T03:17:23;14.88;;;13.88;;
80788;SDS011;70191;51.114;8.678;2023-06-22T03:19:49;16.15;;;15.07;;
80788;SDS011;70191;51.114;8.678;2023-06-22T03:22:15;14.68;;;13.70;;
80788;SDS011;70191;51.114;8.678;2023-06-22T03:24:41;13.55;;;12.65;;
80788;SDS011;70191;51.114;8.678;2023-06-22T03:27:07;14.93;;;13.88;;
80788;SDS011;70191;51.114;8.678;2023-06-22T03:29:33;14.80;;;13.65;;
80788;SDS011;70191;51.114;8.678;2023-06-22T03:31:59;13.65;;;12.75;;
80788;SDS011;70191;51.114;8.678;2023-06-22T03:34:25;14.30;;;13.10;;
80788;SDS011;70191;51.114;8.678;2023-06-22T03:36:51;14.07;;;13.10;;
80788;SDS011;70191;51.114;8.678;2023-06-22T03:39:17;14.18;;;13.20;;
80788;SDS011;70191;51.114;8.678;2023-06-22T03:41:43;14.32;;;13.32;;
80788;SDS011;70191;51.114;8.678;2023-06-22T03:44:09;13.80;;;12.90;;
80788;SDS011;70191;51.114;8.678;2023-06-22T03:46:37;15.13;;;14.13;;
80788;SDS011;70191;51.114;8.678;2023-06-22T03:49:03;13.98;;;13.00;;
80788;SDS011;70191;51.114;8.678;2023-06-22T03:51:30;13.80;;;12.90;;
80788;SDS011;70191;51.114;8.678;2023-06-22T03:53:56;14.50;;;13.50;;
80788;SDS011;70191;51.114;8.678;2023-06-22T03:56:22;14.20;;;13.10;;
80788;SDS011;70191;51.114;8.678;2023-06-22T03:58:48;12.82;;;12.02;;
80788;SDS011;70191;51.114;8.678;2023-06-22T04:01:14;14.73;;;13.63;;
80788;SDS011;70191;51.114;8.678;2023-06-22T04:03:42;14.68;;;13.57;;
80788;SDS011;70191;51.114;8.678;2023-06-22T04:06:08;14.75;;;13.75;;
80788;SDS011;70191;51.114;8.678;2023-06-22T04:08:34;14.30;;;13.30;;
80788;SDS011;70191;51.114;8.678;2023-06-22T04:11:00;15.10;;;14.10;;
80788;SDS011;70191;51.114;8.678;2023-06-22T04:13:26;15.52;;;14.43;;
80788;SDS011;70191;51.114;8.678;2023-06-22T04:15:52;15.60;;;14.60;;
80788;SDS011;70191;51.114;8.678;2023-06-22T04:18:18;15.23;;;14.05;;
80788;SDS011;70191;51.114;8.678;2023-06-22T04:20:44;14.57;;;13.57;;
80788;SDS011;70191;51.114;8.678;2023-06-22T04:23:11;14.70;;;13.68;;
80788;SDS011;70191;51.114;8.678;2023-06-22T04:25:37;14.32;;;13.43;;
80788;SDS011;70191;51.114;8.678;2023-06-22T04:28:03;14.35;;;13.45;;
80788;SDS011;70191;51.114;8.678;2023-06-22T04:30:29;14.65;;;13.75;;
80788;SDS011;70191;51.114;8.678;2023-06-22T04:32:56;14.77;;;13.77;;
80788;SDS011;70191;51.114;8.678;2023-06-22T04:35:26;14.75;;;13.70;;
80788;SDS011;70191;51.114;8.678;2023-06-22T04:37:53;14.60;;;13.70;;
80788;SDS011;70191;51.114;8.678;2023-06-22T04:40:19;14.55;;;13.65;;
80788;SDS011;70191;51.114;8.678;2023-06-22T04:42:45;14.75;;;13.77;;
80788;SDS011;70191;51.114;8.678;2023-06-22T04:45:17;15.00;;;14.10;;
80788;SDS011;70191;51.114;8.678;2023-06-22T04:47:43;15.48;;;14.48;;
80788;SDS011;70191;51.114;8.678;2023-06-22T04:50:10;15.73;;;14.65;;
80788;SDS011;70191;51.114;8.678;2023-06-22T04:52:36;15.70;;;14.70;;
80788;SDS011;70191;51.114;8.678;2023-06-22T04:55:02;15.95;;;14.85;;
80788;SDS011;70191;51.114;8.678;2023-06-22T04:57:28;15.23;;;14.23;;
80788;SDS011;70191;51.114;8.678;2023-06-22T05:00:01;15.63;;;14.63;;
80788;SDS011;70191;51.114;8.678;2023-06-22T05:02:41;16.60;;;15.50;;
80788;SDS011;70191;51.114;8.678;2023-06-22T05:05:07;15.52;;;14.52;;
80788;SDS011;70191;51.114;8.678;2023-06-22T05:07:38;15.50;;;14.45;;
80788;SDS011;70191;51.114;8.678;2023-06-22T05:10:07;15.30;;;14.20;;
80788;SDS011;70191;51.114;8.678;2023-06-22T05:12:33;15.57;;;14.57;;
80788;SDS011;70191;51.114;8.678;2023-06-22T05:14:59;15.50;;;14.40;;
80788;SDS011;70191;51.114;8.678;2023-06-22T05:17:26;16.00;;;14.95;;
80788;SDS011;70191;51.114;8.678;2023-06-22T05:19:52;15.95;;;14.85;;
80788;SDS011;70191;51.114;8.678;2023-06-22T05:22:18;15.35;;;14.25;;
80788;SDS011;70191;51.114;8.678;2023-06-22T05:24:45;15.00;;;14.10;;
80788;SDS011;70191;51.114;8.678;2023-06-22T05:27:11;15.23;;;14.23;;
80788;SDS011;70191;51.114;8.678;2023-06-22T05:29:37;15.05;;;14.05;;
80788;SDS011;70191;51.114;8.678;2023-06-22T05:32:03;14.60;;;13.68;;
80788;SDS011;70191;51.114;8.678;2023-06-22T05:34:30;16.35;;;15.25;;
80788;SDS011;70191;51.114;8.678;2023-06-22T05:36:55;14.57;;;13.57;;
80788;SDS011;70191;51.114;8.678;2023-06-22T05:39:23;16.00;;;14.90;;
80788;SDS011;70191;51.114;8.678;2023-06-22T05:41:50;14.98;;;14.02;;
80788;SDS011;70191;51.114;8.678;2023-06-22T05:44:16;49.30;;;24.13;;
80788;SDS011;70191;51.114;8.678;2023-06-22T05:46:43;38.13;;;20.88;;
80788;SDS011;70191;51.114;8.678;2023-06-22T05:49:13;28.67;;;21.75;;
80788;SDS011;70191;51.114;8.678;2023-06-22T05:51:39;18.92;;;16.90;;
80788;SDS011;70191;51.114;8.678;2023-06-22T05:54:05;22.77;;;17.17;;
80788;SDS011;70191;51.114;8.678;2023-06-22T05:56:33;20.20;;;18.02;;
80788;SDS011;70191;51.114;8.678;2023-06-22T05:58:58;26.48;;;19.73;;
80788;SDS011;70191;51.114;8.678;2023-06-22T06:01:24;24.95;;;16.73;;
80788;SDS011;70191;51.114;8.678;2023-06-22T06:03:51;24.75;;;17.80;;
80788;SDS011;70191;51.114;8.678;2023-06-22T06:06:18;18.88;;;16.02;;
80788;SDS011;70191;51.114;8.678;2023-06-22T06:08:53;29.67;;;18.33;;
80788;SDS011;70191;51.114;8.678;2023-06-22T06:11:20;25.23;;;17.98;;
80788;SDS011;70191;51.114;8.678;2023-06-22T06:13:45;19.40;;;17.02;;
80788;SDS011;70191;51.114;8.678;2023-06-22T06:16:12;20.98;;;18.35;;
80788;SDS011;70191;51.114;8.678;2023-06-22T06:18:38;21.15;;;18.63;;
80788;SDS011;70191;51.114;8.678;2023-06-22T06:21:04;23.13;;;19.55;;
80788;SDS011;70191;51.114;8.678;2023-06-22T06:23:30;22.10;;;19.13;;
80788;SDS011;70191;51.114;8.678;2023-06-22T06:25:55;20.98;;;18.33;;
80788;SDS011;70191;51.114;8.678;2023-06-22T06:28:22;20.90;;;17.33;;
80788;SDS011;70191;51.114;8.678;2023-06-22T06:30:48;19.92;;;17.90;;
80788;SDS011;70191;51.114;8.678;2023-06-22T06:33:16;21.67;;;17.52;;
80788;SDS011;70191;51.114;8.678;2023-06-22T06:35:42;20.40;;;18.23;;
80788;SDS011;70191;51.114;8.678;2023-06-22T06:38:08;22.70;;;17.77;;
80788;SDS011;70191;51.114;8.678;2023-06-22T06:40:35;22.23;;;17.88;;
80788;SDS011;70191;51.114;8.678;2023-06-22T06:43:01;24.15;;;19.25;;
80788;SDS011;70191;51.114;8.678;2023-06-22T06:45:27;25.83;;;20.10;;
80788;SDS011;70191;51.114;8.678;2023-06-22T06:47:55;23.20;;;20.77;;
80788;SDS011;70191;51.114;8.678;2023-06-22T06:50:22;19.83;;;18.13;;
80788;SDS011;70191;51.114;8.678;2023-06-22T06:52:48;21.48;;;19.27;;
80788;SDS011;70191;51.114;8.678;2023-06-22T06:55:15;21.88;;;19.85;;
80788;SDS011;70191;51.114;8.678;2023-06-22T06:57:41;22.48;;;20.17;;
80788;SDS011;70191;51.114;8.678;2023-06-22T07:00:09;21.50;;;19.38;;
80788;SDS011;70191;51.114;8.678;2023-06-22T07:02:40;22.17;;;19.73;;
80788;SDS011;70191;51.114;8.678;2023-06-22T07:05:06;22.45;;;18.95;;
80788;SDS011;70191;51.114;8.678;2023-06-22T07:07:32;22.25;;;19.85;;
80788;SDS011;70191;51.114;8.678;2023-06-22T07:09:59;23.90;;;20.20;;
80788;SDS011;70191;51.114;8.678;2023-06-22T07:12:25;22.17;;;19.25;;
80788;SDS011;70191;51.114;8.678;2023-06-22T07:14:51;21.52;;;19.30;;
80788;SDS011;70191;51.114;8.678;2023-06-22T07:17:17;24.52;;;20.40;;
80788;SDS011;70191;51.114;8.678;2023-06-22T07:19:43;20.17;;;18.08;;
80788;SDS011;70191;51.114;8.678;2023-06-22T07:22:09;24.67;;;18.95;;
80788;SDS011;70191;51.114;8.678;2023-06-22T07:24:35;21.10;;;19.05;;
80788;SDS011;70191;51.114;8.678;2023-06-22T07:27:02;20.70;;;18.80;;
80788;SDS011;70191;51.114;8.678;2023-06-22T07:29:28;21.40;;;19.08;;
80788;SDS011;70191;51.114;8.678;2023-06-22T07:31:54;21.05;;;19.05;;
80788;SDS011;70191;51.114;8.678;2023-06-22T07:34:21;20.38;;;18.40;;
80788;SDS011;70191;51.114;8.678;2023-06-22T07:36:47;20.25;;;18.35;;
80788;SDS011;70191;51.114;8.678;2023-06-22T07:39:13;22.52;;;20.33;;
80788;SDS011;70191;51.114;8.678;2023-06-22T07:41:42;21.02;;;18.58;;
80788;SDS011;70191;51.114;8.678;2023-06-22T07:44:08;20.08;;;18.25;;
80788;SDS011;70191;51.114;8.678;2023-06-22T07:46:34;20.52;;;18.70;;
80788;SDS011;70191;51.114;8.678;2023-06-22T07:49:00;20.02;;;18.02;;
80788;SDS011;70191;51.114;8.678;2023-06-22T07:51:26;19.80;;;18.20;;
80788;SDS011;70191;51.114;8.678;2023-06-22T07:53:52;24.70;;;18.50;;
80788;SDS011;70191;51.114;8.678;2023-06-22T07:56:18;20.75;;;18.20;;
80788;SDS011;70191;51.114;8.678;2023-06-22T07:58:45;19.55;;;17.77;;
80788;SDS011;70191;51.114;8.678;2023-06-22T08:01:11;19.08;;;17.27;;
80788;SDS011;70191;51.114;8.678;2023-06-22T08:03:37;19.92;;;17.88;;
80788;SDS011;70191;51.114;8.678;2023-06-22T08:06:04;20.73;;;18.52;;
80788;SDS011;70191;51.114;8.678;2023-06-22T08:08:30;21.58;;;19.35;;
80788;SDS011;70191;51.114;8.678;2023-06-22T08:10:56;20.05;;;18.13;;
80788;SDS011;70191;51.114;8.678;2023-06-22T08:13:22;20.25;;;18.42;;
80788;SDS011;70191;51.114;8.678;2023-06-22T08:15:48;19.05;;;17.35;;
80788;SDS011;70191;51.114;8.678;2023-06-22T08:18:14;19.80;;;17.83;;
80788;SDS011;70191;51.114;8.678;2023-06-22T08:20:41;19.13;;;17.63;;
80788;SDS011;70191;51.114;8.678;2023-06-22T08:23:07;20.23;;;18.42;;
80788;SDS011;70191;51.114;8.678;2023-06-22T08:25:33;20.88;;;18.98;;
80788;SDS011;70191;51.114;8.678;2023-06-22T08:27:59;19.42;;;17.75;;
80788;SDS011;70191;51.114;8.678;2023-06-22T08:30:26;19.70;;;17.95;;
80788;SDS011;70191;51.114;8.678;2023-06-22T08:32:52;19.00;;;17.20;;
80788;SDS011;70191;51.114;8.678;2023-06-22T08:35:22;17.70;;;16.40;;
80788;SDS011;70191;51.114;8.678;2023-06-22T08:37:48;18.85;;;17.05;;
80788;SDS011;70191;51.114;8.678;2023-06-22T08:40:19;19.83;;;17.52;;
80788;SDS011;70191;51.114;8.678;2023-06-22T08:42:45;18.25;;;16.50;;
80788;SDS011;70191;51.114;8.678;2023-06-22T08:45:12;19.23;;;17.45;;
80788;SDS011;70191;51.114;8.678;2023-06-22T08:47:38;19.52;;;17.65;;
80788;SDS011;70191;51.114;8.678;2023-06-22T08:50:05;25.48;;;22.77;;
80788;SDS011;70191;51.114;8.678;2023-06-22T08:52:31;22.58;;;20.20;;
80788;SDS011;70191;51.114;8.678;2023-06-22T08:54:57;23.50;;;21.17;;
80788;SDS011;70191;51.114;8.678;2023-06-22T08:57:23;23.98;;;21.65;;
80788;SDS011;70191;51.114;8.678;2023-06-22T08:59:49;27.80;;;23.05;;
80788;SDS011;70191;51.114;8.678;2023-06-22T09:02:17;44.45;;;30.60;;
80788;SDS011;70191;51.114;8.678;2023-06-22T09:04:44;46.08;;;37.10;;
80788;SDS011;70191;51.114;8.678;2023-06-22T09:07:10;34.38;;;27.58;;
80788;SDS011;70191;51.114;8.678;2023-06-22T09:09:36;35.45;;;29.70;;
80788;SDS011;70191;51.114;8.678;2023-06-22T09:12:02;39.47;;;31.15;;
80788;SDS011;70191;51.114;8.678;2023-06-22T09:14:28;31.40;;;27.80;;
80788;SDS011;70191;51.114;8.678;2023-06-22T09:16:54;38.28;;;29.25;;
80788;SDS011;70191;51.114;8.678;2023-06-22T09:19:20;32.25;;;28.67;;
80788;SDS011;70191;51.114;8.678;2023-06-22T09:21:46;35.33;;;28.95;;
80788;SDS011;70191;51.114;8.678;2023-06-22T09:24:12;33.92;;;29.33;;
80788;SDS011;70191;51.114;8.678;2023-06-22T09:26:38;34.05;;;28.67;;
80788;SDS011;70191;51.114;8.678;2023-06-22T09:29:05;30.70;;;27.38;;
80788;SDS011;70191;51.114;8.678;2023-06-22T09:31:31;36.70;;;28.83;;
80788;SDS011;70191;51.114;8.678;2023-06-22T09:33:57;30.00;;;26.88;;
80788;SDS011;70191;51.114;8.678;2023-06-22T09:36:23;32.17;;;28.20;;
80788;SDS011;70191;51.114;8.678;2023-06-22T09:38:49;35.00;;;28.52;;
80788;SDS011;70191;51.114;8.678;2023-06-22T09:41:20;32.65;;;27.40;;
80788;SDS011;70191;51.114;8.678;2023-06-22T09:43:46;31.27;;;26.40;;
80788;SDS011;70191;51.114;8.678;2023-06-22T09:46:14;32.42;;;27.05;;
80788;SDS011;70191;51.114;8.678;2023-06-22T09:48:40;32.50;;;26.70;;
80788;SDS011;70191;51.114;8.678;2023-06-22T09:51:06;30.75;;;27.00;;
80788;SDS011;70191;51.114;8.678;2023-06-22T09:53:32;29.40;;;25.98;;
80788;SDS011;70191;51.114;8.678;2023-06-22T09:55:59;28.35;;;25.33;;
80788;SDS011;70191;51.114;8.678;2023-06-22T09:58:25;28.13;;;25.23;;
80788;SDS011;70191;51.114;8.678;2023-06-22T10:00:51;29.88;;;25.63;;
80788;SDS011;70191;51.114;8.678;2023-06-22T10:03:19;30.50;;;25.10;;
80788;SDS011;70191;51.114;8.678;2023-06-22T10:05:45;26.63;;;23.77;;
80788;SDS011;70191;51.114;8.678;2023-06-22T10:08:11;26.48;;;23.80;;
80788;SDS011;70191;51.114;8.678;2023-06-22T10:10:37;29.95;;;25.60;;
80788;SDS011;70191;51.114;8.678;2023-06-22T10:13:07;26.95;;;23.90;;
80788;SDS011;70191;51.114;8.678;2023-06-22T10:15:34;26.63;;;23.70;;
80788;SDS011;70191;51.114;8.678;2023-06-22T10:18:00;28.13;;;23.35;;
80788;SDS011;70191;51.114;8.678;2023-06-22T10:20:26;25.30;;;22.75;;
80788;SDS011;70191;51.114;8.678;2023-06-22T10:22:53;26.30;;;23.50;;
80788;SDS011;70191;51.114;8.678;2023-06-22T10:25:19;24.30;;;21.63;;
80788;SDS011;70191;51.114;8.678;2023-06-22T10:27:45;25.40;;;22.63;;
80788;SDS011;70191;51.114;8.678;2023-06-22T10:30:11;27.02;;;23.50;;
80788;SDS011;70191;51.114;8.678;2023-06-22T10:32:38;25.45;;;22.75;;
80788;SDS011;70191;51.114;8.678;2023-06-22T10:35:05;27.17;;;23.42;;
80788;SDS011;70191;51.114;8.678;2023-06-22T10:37:31;26.08;;;21.73;;
80788;SDS011;70191;51.114;8.678;2023-06-22T10:39:57;24.35;;;22.02;;
80788;SDS011;70191;51.114;8.678;2023-06-22T10:42:23;24.33;;;21.73;;
80788;SDS011;70191;51.114;8.678;2023-06-22T10:44:49;24.60;;;22.08;;
80788;SDS011;70191;51.114;8.678;2023-06-22T10:47:15;25.13;;;22.50;;
80788;SDS011;70191;51.114;8.678;2023-06-22T10:49:41;25.33;;;22.65;;
80788;SDS011;70191;51.114;8.678;2023-06-22T10:52:08;23.67;;;21.38;;
80788;SDS011;70191;51.114;8.678;2023-06-22T10:54:34;23.63;;;21.02;;
80788;SDS011;70191;51.114;8.678;2023-06-22T10:58:45;14.85;;;12.77;;
80788;SDS011;70191;51.114;8.678;2023-06-22T11:01:11;35.35;;;13.98;;
80788;SDS011;70191;51.114;8.678;2023-06-22T11:03:38;19.70;;;15.15;;
80788;SDS011;70191;51.114;8.678;2023-06-22T11:06:04;17.40;;;13.00;;
80788;SDS011;70191;51.114;8.678;2023-06-22T11:10:06;17.35;;;14.20;;
80788;SDS011;70191;51.114;8.678;2023-06-22T11:13:27;15.38;;;13.75;;
80788;SDS011;70191;51.114;8.678;2023-06-22T11:15:53;19.52;;;13.98;;
80788;SDS011;70191;51.114;8.678;2023-06-22T11:18:19;18.42;;;13.35;;
80788;SDS011;70191;51.114;8.678;2023-06-22T11:20:44;19.08;;;14.90;;
80788;SDS011;70191;51.114;8.678;2023-06-22T11:23:10;15.20;;;13.38;;
80788;SDS011;70191;51.114;8.678;2023-06-22T11:25:37;19.05;;;14.30;;
80788;SDS011;70191;51.114;8.678;2023-06-22T11:28:03;15.80;;;13.07;;
80788;SDS011;70191;51.114;8.678;2023-06-22T11:30:29;15.30;;;13.38;;
80788;SDS011;70191;51.114;8.678;2023-06-22T11:32:56;15.82;;;14.20;;
80788;SDS011;70191;51.114;8.678;2023-06-22T11:35:23;14.75;;;13.27;;
80788;SDS011;70191;51.114;8.678;2023-06-22T11:37:48;15.85;;;13.70;;
80788;SDS011;70191;51.114;8.678;2023-06-22T11:40:14;15.15;;;13.52;;
80788;SDS011;70191;51.114;8.678;2023-06-22T11:42:39;18.17;;;13.68;;
80788;SDS011;70191;51.114;8.678;2023-06-22T11:45:05;17.17;;;12.10;;
80788;SDS011;70191;51.114;8.678;2023-06-22T11:47:31;13.43;;;12.02;;
80788;SDS011;70191;51.114;8.678;2023-06-22T11:49:57;16.15;;;12.85;;
80788;SDS011;70191;51.114;8.678;2023-06-22T11:52:22;15.10;;;12.52;;
80788;SDS011;70191;51.114;8.678;2023-06-22T11:54:48;14.40;;;12.38;;
80788;SDS011;70191;51.114;8.678;2023-06-22T11:57:13;15.30;;;13.77;;
80788;SDS011;70191;51.114;8.678;2023-06-22T11:59:39;17.83;;;13.73;;
80788;SDS011;70191;51.114;8.678;2023-06-22T12:02:04;16.00;;;14.60;;
80788;SDS011;70191;51.114;8.678;2023-06-22T12:04:32;14.43;;;12.65;;
80788;SDS011;70191;51.114;8.678;2023-06-22T12:06:58;14.05;;;12.55;;
80788;SDS011;70191;51.114;8.678;2023-06-22T12:09:23;17.13;;;14.63;;
80788;SDS011;70191;51.114;8.678;2023-06-22T12:11:49;15.68;;;14.27;;
80788;SDS011;70191;51.114;8.678;2023-06-22T12:14:14;16.67;;;14.57;;
80788;SDS011;70191;51.114;8.678;2023-06-22T12:16:40;16.42;;;14.73;;
80788;SDS011;70191;51.114;8.678;2023-06-22T12:19:06;15.93;;;14.00;;
80788;SDS011;70191;51.114;8.678;2023-06-22T12:21:31;15.80;;;14.20;;
80788;SDS011;70191;51.114;8.678;2023-06-22T12:23:57;15.68;;;13.82;;
80788;SDS011;70191;51.114;8.678;2023-06-22T12:26:22;16.40;;;14.45;;
80788;SDS011;70191;51.114;8.678;2023-06-22T12:28:48;19.48;;;12.32;;
80788;SDS011;70191;51.114;8.678;2023-06-22T12:31:14;14.18;;;11.95;;
80788;SDS011;70191;51.114;8.678;2023-06-22T12:33:39;14.55;;;13.05;;
80788;SDS011;70191;51.114;8.678;2023-06-22T12:36:05;16.25;;;13.10;;
80788;SDS011;70191;51.114;8.678;2023-06-22T12:38:30;13.05;;;11.75;;
80788;SDS011;70191;51.114;8.678;2023-06-22T12:40:56;13.23;;;11.93;;
80788;SDS011;70191;51.114;8.678;2023-06-22T12:43:21;14.90;;;12.57;;
80788;SDS011;70191;51.114;8.678;2023-06-22T12:45:47;13.68;;;11.48;;
80788;SDS011;70191;51.114;8.678;2023-06-22T12:48:12;13.25;;;11.85;;
80788;SDS011;70191;51.114;8.678;2023-06-22T12:50:38;13.55;;;12.15;;
80788;SDS011;70191;51.114;8.678;2023-06-22T12:53:04;12.93;;;11.40;;
80788;SDS011;70191;51.114;8.678;2023-06-22T12:55:31;13.15;;;11.75;;
80788;SDS011;70191;51.114;8.678;2023-06-22T12:57:56;12.93;;;11.65;;
80788;SDS011;70191;51.114;8.678;2023-06-22T13:00:22;14.20;;;12.73;;
80788;SDS011;70191;51.114;8.678;2023-06-22T13:02:48;13.32;;;11.93;;
80788;SDS011;70191;51.114;8.678;2023-06-22T13:05:13;14.27;;;12.80;;
80788;SDS011;70191;51.114;8.678;2023-06-22T13:07:39;13.57;;;12.38;;
80788;SDS011;70191;51.114;8.678;2023-06-22T13:10:05;16.42;;;13.65;;
80788;SDS011;70191;51.114;8.678;2023-06-22T13:12:31;12.95;;;11.60;;
80788;SDS011;70191;51.114;8.678;2023-06-22T13:14:56;14.05;;;12.82;;
80788;SDS011;70191;51.114;8.678;2023-06-22T13:17:22;13.52;;;12.13;;
80788;SDS011;70191;51.114;8.678;2023-06-22T13:19:47;16.58;;;13.10;;
80788;SDS011;70191;51.114;8.678;2023-06-22T13:25:11;13.18;;;11.88;;
80788;SDS011;70191;51.114;8.678;2023-06-22T13:27:41;13.70;;;12.30;;
80788;SDS011;70191;51.114;8.678;2023-06-22T13:30:07;13.02;;;11.77;;
80788;SDS011;70191;51.114;8.678;2023-06-22T13:32:33;12.52;;;11.25;;
80788;SDS011;70191;51.114;8.678;2023-06-22T13:34:59;13.23;;;11.52;;
80788;SDS011;70191;51.114;8.678;2023-06-22T13:37:25;13.98;;;12.55;;
80788;SDS011;70191;51.114;8.678;2023-06-22T13:39:51;13.68;;;12.27;;
80788;SDS011;70191;51.114;8.678;2023-06-22T13:42:17;13.30;;;11.63;;
80788;SDS011;70191;51.114;8.678;2023-06-22T13:44:42;12.07;;;10.82;;
80788;SDS011;70191;51.114;8.678;2023-06-22T13:47:08;56.47;;;47.05;;
80788;SDS011;70191;51.114;8.678;2023-06-22T13:49:34;22.40;;;20.70;;
80788;SDS011;70191;51.114;8.678;2023-06-22T13:52:00;22.05;;;20.05;;
80788;SDS011;70191;51.114;8.678;2023-06-22T13:54:25;21.60;;;19.90;;
80788;SDS011;70191;51.114;8.678;2023-06-22T13:56:51;22.67;;;20.98;;
80788;SDS011;70191;51.114;8.678;2023-06-22T13:59:16;22.52;;;20.75;;
80788;SDS011;70191;51.114;8.678;2023-06-22T14:01:42;23.45;;;21.55;;
80788;SDS011;70191;51.114;8.678;2023-06-22T14:04:08;22.00;;;20.40;;
80788;SDS011;70191;51.114;8.678;2023-06-22T14:06:34;22.00;;;20.13;;
80788;SDS011;70191;51.114;8.678;2023-06-22T14:09:00;22.17;;;20.58;;
80788;SDS011;70191;51.114;8.678;2023-06-22T14:11:25;22.38;;;20.73;;
80788;SDS011;70191;51.114;8.678;2023-06-22T14:13:51;25.85;;;22.88;;
80788;SDS011;70191;51.114;8.678;2023-06-22T14:16:17;23.27;;;21.58;;
80788;SDS011;70191;51.114;8.678;2023-06-22T14:18:42;23.95;;;22.15;;
80788;SDS011;70191;51.114;8.678;2023-06-22T14:21:08;24.63;;;22.63;;
80788;SDS011;70191;51.114;8.678;2023-06-22T14:23:33;24.17;;;22.23;;
80788;SDS011;70191;51.114;8.678;2023-06-22T14:25:59;23.60;;;21.88;;
80788;SDS011;70191;51.114;8.678;2023-06-22T14:28:24;23.30;;;21.63;;